createdAt,value
2023-05-05T00:00:35.032Z,14.89
2023-05-05T00:03:03.114Z,14.94
2023-05-05T00:05:31.706Z,14.94
2023-05-05T00:08:00.127Z,15.00
2023-05-05T00:10:28.365Z,15.04
2023-05-05T00:12:56.259Z,15.08
2023-05-05T00:15:24.247Z,15.14
2023-05-05T00:17:52.239Z,15.14
2023-05-05T00:20:20.338Z,15.12
2023-05-05T00:22:48.608Z,15.07
2023-05-05T00:25:16.880Z,15.02
2023-05-05T00:27:45.245Z,14.97
2023-05-05T00:30:16.053Z,14.86
2023-05-05T00:32:44.537Z,14.72
2023-05-05T00:35:12.481Z,14.64
2023-05-05T00:37:40.734Z,14.54
2023-05-05T00:40:10.030Z,14.46
2023-05-05T00:42:43.976Z,14.39
2023-05-05T00:45:13.425Z,14.33
2023-05-05T00:47:48.680Z,14.29
2023-05-05T00:50:27.952Z,14.22
2023-05-05T00:53:03.114Z,14.20
2023-05-05T00:55:33.245Z,14.14
2023-05-05T00:58:03.323Z,14.08
2023-05-05T01:00:31.858Z,14.01
2023-05-05T01:03:00.280Z,13.96
2023-05-05T01:05:41.706Z,13.92
2023-05-05T01:08:24.863Z,13.94
2023-05-05T01:10:57.720Z,13.96
2023-05-05T01:13:35.929Z,13.94
2023-05-05T01:16:19.256Z,13.92
2023-05-05T01:19:19.098Z,13.86
2023-05-05T01:21:50.390Z,13.88
2023-05-05T01:24:54.690Z,13.91
2023-05-05T01:27:38.714Z,13.94
2023-05-05T01:30:45.131Z,13.95
2023-05-05T01:33:16.077Z,13.97
2023-05-05T01:35:53.433Z,13.99
2023-05-05T01:38:34.512Z,14.00
2023-05-05T01:41:20.469Z,13.96
2023-05-05T01:43:50.510Z,13.97
2023-05-05T01:46:19.895Z,14.00
2023-05-05T01:48:49.200Z,14.02
2023-05-05T01:51:18.652Z,14.03
2023-05-05T01:53:47.597Z,13.99
2023-05-05T01:56:16.711Z,14.07
2023-05-05T01:58:45.638Z,14.10
2023-05-05T02:01:14.233Z,14.01
2023-05-05T02:03:45.446Z,13.99
2023-05-05T02:06:15.969Z,13.94
2023-05-05T02:08:45.356Z,13.88
2023-05-05T02:11:13.654Z,13.86
2023-05-05T02:13:43.373Z,13.86
2023-05-05T02:16:12.556Z,13.93
2023-05-05T02:18:41.790Z,13.93
2023-05-05T02:21:11.009Z,13.96
2023-05-05T02:23:40.100Z,13.94
2023-05-05T02:26:10.175Z,13.93
2023-05-05T02:28:42.713Z,13.90
2023-05-05T02:31:11.745Z,13.88
2023-05-05T02:33:41.657Z,13.87
2023-05-05T02:36:20.111Z,13.88
2023-05-05T02:38:50.785Z,13.86
2023-05-05T02:41:21.240Z,13.85
2023-05-05T02:43:50.819Z,13.89
2023-05-05T02:46:27.188Z,13.96
2023-05-05T02:48:58.917Z,14.10
2023-05-05T02:51:28.110Z,14.28
2023-05-05T02:53:59.523Z,14.44
2023-05-05T02:56:33.710Z,14.68
2023-05-05T02:59:26.767Z,14.96
2023-05-05T03:02:04.133Z,15.23
2023-05-05T03:04:39.974Z,15.51
2023-05-05T03:07:13.653Z,15.63
2023-05-05T03:09:49.119Z,15.74
2023-05-05T03:12:22.630Z,15.84
2023-05-05T03:14:52.632Z,16.07
2023-05-05T03:17:22.453Z,16.14
2023-05-05T03:19:51.598Z,16.10
2023-05-05T03:22:19.928Z,16.01
2023-05-05T03:24:52.216Z,15.88
2023-05-05T03:27:21.119Z,15.94
2023-05-05T03:29:49.330Z,15.82
2023-05-05T03:32:17.548Z,15.94
2023-05-05T03:34:45.676Z,16.11
2023-05-05T03:37:14.167Z,16.24
2023-05-05T03:39:42.561Z,16.43
2023-05-05T03:42:10.755Z,16.52
2023-05-05T03:44:39.436Z,16.63
2023-05-05T03:47:08.217Z,16.70
2023-05-05T03:49:36.411Z,16.85
2023-05-05T03:52:04.603Z,17.07
2023-05-05T03:54:32.882Z,17.29
2023-05-05T03:57:00.885Z,17.78
2023-05-05T03:59:29.034Z,19.25
2023-05-05T04:01:57.294Z,20.93
2023-05-05T04:04:28.288Z,23.31
2023-05-05T04:06:56.533Z,24.20
2023-05-05T04:09:24.702Z,23.96
2023-05-05T04:11:52.667Z,23.66
2023-05-05T04:14:20.912Z,23.92
2023-05-05T04:16:49.116Z,23.61
2023-05-05T04:19:18.006Z,22.89
2023-05-05T04:21:46.299Z,22.24
2023-05-05T04:24:14.135Z,23.11
2023-05-05T04:26:42.826Z,26.36
2023-05-05T04:29:11.327Z,29.47
2023-05-05T04:31:41.020Z,30.76
2023-05-05T04:34:09.351Z,31.65
2023-05-05T04:36:37.543Z,32.26
2023-05-05T04:39:07.347Z,33.51
2023-05-05T04:41:38.206Z,35.55
2023-05-05T04:44:06.899Z,35.02
2023-05-05T04:46:35.284Z,32.31
2023-05-05T04:49:05.988Z,30.91
2023-05-05T04:51:34.906Z,28.80
2023-05-05T04:54:03.319Z,27.11
2023-05-05T04:56:32.534Z,25.78
2023-05-05T04:59:00.702Z,25.15
2023-05-05T05:01:28.843Z,24.74
2023-05-05T05:03:57.247Z,24.37
2023-05-05T05:06:25.836Z,24.15
2023-05-05T05:08:54.133Z,24.59
2023-05-05T05:11:22.998Z,26.32
2023-05-05T05:13:51.795Z,26.19
2023-05-05T05:16:19.906Z,26.35
2023-05-05T05:18:48.065Z,26.41
2023-05-05T05:21:16.739Z,25.74
2023-05-05T05:23:44.984Z,25.26
2023-05-05T05:26:13.497Z,24.95
2023-05-05T05:28:43.016Z,25.83
2023-05-05T05:31:11.477Z,27.04
2023-05-05T05:33:40.580Z,30.22
2023-05-05T05:36:09.026Z,32.72
2023-05-05T05:38:37.575Z,32.62
2023-05-05T05:41:08.491Z,33.93
2023-05-05T05:43:36.601Z,35.94
2023-05-05T05:46:05.865Z,36.52
2023-05-05T05:48:35.656Z,34.74
2023-05-05T05:51:03.958Z,31.78
2023-05-05T05:53:32.233Z,30.27
2023-05-05T05:56:01.837Z,28.74
2023-05-05T05:58:30.379Z,27.64
2023-05-05T06:01:00.264Z,27.50
2023-05-05T06:03:31.292Z,28.79
2023-05-05T06:05:59.571Z,29.89
2023-05-05T06:08:27.558Z,29.64
2023-05-05T06:10:55.604Z,28.96
2023-05-05T06:13:23.891Z,27.75
2023-05-05T06:15:52.002Z,26.78
2023-05-05T06:18:20.575Z,26.34
2023-05-05T06:20:51.870Z,26.05
2023-05-05T06:23:23.133Z,25.52
2023-05-05T06:25:52.020Z,25.21
2023-05-05T06:28:20.569Z,25.98
2023-05-05T06:30:48.718Z,26.52
2023-05-05T06:33:17.237Z,26.66
2023-05-05T06:35:47.381Z,27.88
2023-05-05T06:38:16.558Z,29.71
2023-05-05T06:40:44.504Z,30.26
2023-05-05T06:43:12.584Z,30.50
2023-05-05T06:45:41.906Z,31.98
2023-05-05T06:48:11.288Z,31.69
2023-05-05T06:50:39.201Z,30.28
2023-05-05T06:53:07.370Z,28.51
2023-05-05T06:55:35.599Z,28.16
2023-05-05T06:58:03.763Z,28.09
2023-05-05T07:00:35.521Z,27.94
2023-05-05T07:03:04.208Z,27.48
2023-05-05T07:05:32.637Z,26.90
2023-05-05T07:08:02.413Z,27.00
2023-05-05T07:10:31.870Z,27.58
2023-05-05T07:13:00.118Z,28.13
2023-05-05T07:15:29.632Z,28.07
2023-05-05T07:17:58.625Z,28.03
2023-05-05T07:20:27.020Z,28.08
2023-05-05T07:22:55.554Z,27.42
2023-05-05T07:25:23.564Z,27.06
2023-05-05T07:27:51.794Z,26.86
2023-05-05T07:30:20.065Z,26.65
2023-05-05T07:32:50.658Z,26.34
2023-05-05T07:35:19.772Z,26.00
2023-05-05T07:37:47.717Z,25.67
2023-05-05T07:40:18.177Z,25.23
2023-05-05T07:42:59.339Z,24.85
2023-05-05T07:45:29.100Z,24.51
2023-05-05T07:48:01.515Z,24.28
2023-05-05T07:50:30.246Z,24.03
2023-05-05T07:53:10.878Z,23.99
2023-05-05T07:55:42.888Z,24.03
2023-05-05T07:58:12.102Z,23.99
2023-05-05T08:00:40.412Z,23.95
2023-05-05T08:03:11.597Z,23.93
2023-05-05T08:05:40.932Z,23.99
2023-05-05T08:08:09.258Z,24.19
2023-05-05T08:10:38.955Z,24.46
2023-05-05T08:13:10.071Z,24.59
2023-05-05T08:15:38.538Z,24.75
2023-05-05T08:18:07.035Z,24.78
2023-05-05T08:20:35.367Z,24.67
2023-05-05T08:23:03.590Z,24.75
2023-05-05T08:25:31.729Z,25.06
2023-05-05T08:27:59.976Z,25.21
2023-05-05T08:30:28.188Z,25.11
2023-05-05T08:32:56.847Z,24.92
2023-05-05T08:35:25.536Z,24.85
2023-05-05T08:37:54.073Z,24.76
2023-05-05T08:40:25.566Z,24.87
2023-05-05T08:42:53.748Z,24.65
2023-05-05T08:45:21.944Z,24.49
2023-05-05T08:47:49.943Z,24.36
2023-05-05T08:50:17.966Z,24.39
2023-05-05T08:52:53.253Z,24.25
2023-05-05T08:55:27.097Z,24.21
2023-05-05T08:57:57.580Z,24.23
2023-05-05T09:00:27.695Z,24.14
2023-05-05T09:03:00.353Z,23.94
2023-05-05T09:05:28.754Z,23.83
2023-05-05T09:07:57.120Z,24.00
2023-05-05T09:10:27.698Z,24.39
2023-05-05T09:12:55.837Z,24.58
2023-05-05T09:18:09.912Z,24.42
2023-05-05T09:20:40.504Z,24.64
2023-05-05T09:23:15.535Z,24.81
2023-05-05T09:26:04.934Z,24.75
2023-05-05T09:28:36.210Z,24.64
2023-05-05T09:31:15.905Z,24.60
2023-05-05T09:33:44.749Z,24.63
2023-05-05T09:36:12.971Z,24.62
2023-05-05T09:38:42.841Z,24.44
2023-05-05T09:41:11.201Z,24.57
2023-05-05T09:43:52.259Z,24.77
2023-05-05T09:46:20.433Z,24.69
2023-05-05T09:48:48.553Z,24.68
2023-05-05T09:51:16.889Z,24.73
2023-05-05T09:53:45.758Z,24.72
2023-05-05T09:56:15.932Z,24.77
2023-05-05T09:58:44.666Z,24.72
2023-05-05T10:01:24.931Z,24.49
2023-05-05T10:03:53.265Z,24.39
2023-05-05T10:06:48.783Z,24.40
2023-05-05T10:09:17.240Z,24.36
2023-05-05T10:11:47.910Z,24.42
2023-05-05T10:14:16.822Z,24.26
2023-05-05T10:16:51.200Z,24.31
2023-05-05T10:19:24.490Z,24.52
2023-05-05T10:21:54.563Z,24.60
2023-05-05T10:24:39.454Z,24.60
2023-05-05T10:27:17.044Z,24.76
2023-05-05T10:30:03.119Z,25.04
2023-05-05T10:35:24.099Z,25.55
2023-05-05T10:37:53.174Z,25.58
2023-05-05T10:40:25.283Z,25.72
2023-05-05T10:42:55.010Z,25.85
2023-05-05T10:45:23.868Z,25.84
2023-05-05T10:47:52.911Z,25.64
2023-05-05T10:50:56.244Z,25.58
2023-05-05T10:53:27.413Z,25.60
2023-05-05T10:56:37.482Z,25.71
2023-05-05T10:59:38.508Z,26.00
2023-05-05T11:02:22.812Z,26.10
2023-05-05T11:05:09.066Z,26.19
2023-05-05T11:07:38.624Z,26.19
2023-05-05T11:10:12.342Z,26.09
2023-05-05T11:13:05.755Z,26.03
2023-05-05T11:15:38.220Z,26.11
2023-05-05T11:18:08.291Z,25.94
2023-05-05T11:21:00.035Z,25.85
2023-05-05T11:23:29.029Z,26.01
2023-05-05T11:25:58.164Z,26.08
2023-05-05T11:28:33.607Z,26.07
2023-05-05T11:31:01.722Z,25.61
2023-05-05T11:33:38.682Z,25.35
2023-05-05T11:36:08.240Z,25.56
2023-05-05T11:38:39.488Z,25.93
2023-05-05T11:41:32.680Z,26.36
2023-05-05T11:44:17.271Z,26.36
2023-05-05T11:46:55.873Z,26.31
2023-05-05T11:49:30.218Z,26.26
2023-05-05T11:52:02.553Z,26.25
2023-05-05T11:54:31.511Z,26.07
2023-05-05T11:57:05.929Z,26.12
2023-05-05T11:59:49.797Z,26.79
2023-05-05T12:02:19.758Z,27.13
2023-05-05T12:04:48.674Z,26.90
2023-05-05T12:07:21.776Z,27.11
2023-05-05T12:09:50.477Z,27.31
2023-05-05T12:12:19.832Z,27.38
2023-05-05T12:14:55.245Z,27.57
2023-05-05T12:17:23.816Z,27.68
2023-05-05T12:19:53.904Z,27.92
2023-05-05T12:22:27.111Z,28.12
2023-05-05T12:25:08.098Z,28.35
2023-05-05T12:27:36.474Z,28.09
2023-05-05T12:30:16.721Z,27.90
2023-05-05T12:32:45.534Z,27.93
2023-05-05T12:35:17.813Z,28.07
2023-05-05T12:37:46.498Z,28.13
2023-05-05T12:40:42.847Z,28.34
2023-05-05T12:43:23.582Z,28.40
2023-05-05T12:46:12.666Z,28.45
2023-05-05T12:48:48.151Z,28.47
2023-05-05T12:51:21.367Z,28.22
2023-05-05T12:54:03.700Z,27.74
2023-05-05T12:56:35.795Z,27.35
2023-05-05T12:59:10.138Z,27.31
2023-05-05T13:01:57.730Z,27.61
2023-05-05T13:04:27.839Z,27.75
2023-05-05T13:07:28.559Z,27.97
2023-05-05T13:10:08.615Z,27.79
2023-05-05T13:12:37.778Z,27.19
2023-05-05T13:15:07.093Z,26.89
2023-05-05T13:17:36.630Z,26.79
2023-05-05T13:20:06.646Z,26.83
2023-05-05T13:22:34.898Z,26.98
2023-05-05T13:25:04.503Z,26.99
2023-05-05T13:27:32.971Z,26.99
2023-05-05T13:30:00.972Z,26.90
2023-05-05T13:32:31.682Z,26.84
2023-05-05T13:34:59.589Z,26.81
2023-05-05T13:37:28.185Z,26.84
2023-05-05T13:39:59.574Z,26.84
2023-05-05T13:42:27.738Z,26.87
2023-05-05T13:44:56.014Z,26.90
2023-05-05T13:47:24.544Z,27.03
2023-05-05T13:49:52.538Z,27.11
2023-05-05T13:52:20.511Z,27.17
2023-05-05T13:54:50.758Z,27.08
2023-05-05T13:57:18.722Z,26.95
2023-05-05T13:59:46.724Z,26.86
2023-05-05T14:02:25.531Z,26.73
2023-05-05T14:04:55.480Z,26.55
2023-05-05T14:07:23.442Z,26.45
2023-05-05T14:09:51.518Z,26.42
2023-05-05T14:12:19.685Z,26.40
2023-05-05T14:14:47.757Z,26.34
2023-05-05T14:17:15.639Z,26.25
2023-05-05T14:19:44.787Z,26.22
2023-05-05T14:22:12.802Z,26.03
2023-05-05T14:24:41.039Z,25.99
2023-05-05T14:27:09.502Z,26.05
2023-05-05T14:29:39.449Z,25.93
2023-05-05T14:32:07.654Z,25.72
2023-05-05T14:34:38.635Z,25.48
2023-05-05T14:37:07.063Z,25.38
2023-05-05T14:39:35.410Z,25.33
2023-05-05T14:42:03.621Z,25.05
2023-05-05T14:44:34.264Z,25.01
2023-05-05T14:47:04.758Z,25.01
2023-05-05T14:49:35.169Z,25.10
2023-05-05T14:52:04.321Z,25.05
2023-05-05T14:54:32.995Z,25.04
2023-05-05T14:57:01.265Z,24.89
2023-05-05T14:59:30.458Z,24.75
2023-05-05T15:01:59.749Z,24.60
2023-05-05T15:04:27.955Z,24.56
2023-05-05T15:06:57.415Z,24.55
2023-05-05T15:09:28.428Z,24.49
2023-05-05T15:11:56.418Z,24.41
2023-05-05T15:14:24.400Z,24.37
2023-05-05T15:16:52.758Z,24.35
2023-05-05T15:19:20.886Z,24.37
2023-05-05T15:21:54.255Z,24.43
2023-05-05T15:24:22.510Z,24.51
2023-05-05T15:26:50.579Z,24.59
2023-05-05T15:29:21.928Z,24.63
2023-05-05T15:31:50.101Z,24.64
2023-05-05T15:34:19.032Z,24.57
2023-05-05T15:36:47.467Z,24.54
2023-05-05T15:39:15.685Z,24.55
2023-05-05T15:41:46.430Z,24.51
2023-05-05T15:44:14.527Z,24.48
2023-05-05T15:46:42.707Z,24.47
2023-05-05T15:49:11.298Z,24.37
2023-05-05T15:51:39.715Z,24.22
2023-05-05T15:54:08.167Z,24.18
2023-05-05T15:56:36.225Z,24.13
2023-05-05T15:59:04.368Z,24.10
2023-05-05T16:01:36.795Z,24.10
2023-05-05T16:04:05.589Z,24.02
2023-05-05T16:06:33.717Z,23.95
2023-05-05T16:09:02.066Z,23.84
2023-05-05T16:11:30.435Z,23.72
2023-05-05T16:13:59.894Z,23.51
2023-05-05T16:16:31.329Z,23.33
2023-05-05T16:19:02.072Z,23.08
2023-05-05T16:21:30.343Z,22.84
2023-05-05T16:23:58.488Z,22.65
2023-05-05T16:26:26.631Z,22.50
2023-05-05T16:28:54.639Z,22.33
2023-05-05T16:31:22.709Z,22.15
2023-05-05T16:33:51.111Z,21.97
2023-05-05T16:36:21.459Z,21.80
2023-05-05T16:38:50.057Z,21.65
2023-05-05T16:41:18.158Z,21.53
2023-05-05T16:43:46.915Z,21.45
2023-05-05T16:46:15.561Z,21.29
2023-05-05T16:48:43.924Z,21.12
2023-05-05T16:51:15.124Z,20.96
2023-05-05T16:53:48.851Z,20.84
2023-05-05T16:56:17.219Z,20.70
2023-05-05T16:58:45.322Z,20.56
2023-05-05T17:01:14.675Z,20.44
2023-05-05T17:03:42.886Z,20.32
2023-05-05T17:06:14.799Z,20.21
2023-05-05T17:08:43.157Z,20.08
2023-05-05T17:11:12.747Z,19.96
2023-05-05T17:13:41.147Z,19.85
2023-05-05T17:16:09.599Z,19.74
2023-05-05T17:18:37.778Z,19.66
2023-05-05T17:21:06.619Z,19.59
2023-05-05T17:23:34.985Z,19.50
2023-05-05T17:26:03.436Z,19.40
2023-05-05T17:28:32.550Z,19.35
2023-05-05T17:31:02.136Z,19.25
2023-05-05T17:33:30.736Z,19.14
2023-05-05T17:35:59.176Z,19.07
2023-05-05T17:38:27.463Z,19.03
2023-05-05T17:40:55.352Z,18.93
2023-05-05T17:43:23.604Z,18.83
2023-05-05T17:45:51.864Z,18.78
2023-05-05T17:48:20.221Z,18.68
2023-05-05T17:50:48.206Z,18.63
2023-05-05T17:53:19.159Z,18.75
2023-05-05T17:55:47.675Z,19.02
2023-05-05T17:58:15.659Z,19.19
2023-05-05T18:00:43.875Z,19.21
2023-05-05T18:03:12.014Z,19.26
2023-05-05T18:05:40.275Z,19.38
2023-05-05T18:08:08.751Z,19.44
2023-05-05T18:10:37.236Z,19.47
2023-05-05T18:13:05.881Z,19.52
2023-05-05T18:15:34.636Z,19.50
2023-05-05T18:18:02.937Z,19.49
2023-05-05T18:20:31.211Z,19.51
2023-05-05T18:23:02.533Z,19.47
2023-05-05T18:25:30.851Z,19.42
2023-05-05T18:27:59.470Z,19.42
2023-05-05T18:30:27.822Z,19.44
2023-05-05T18:32:56.487Z,19.35
2023-05-05T18:35:26.736Z,19.33
2023-05-05T18:37:57.389Z,19.23
2023-05-05T18:40:25.883Z,19.17
2023-05-05T18:42:57.237Z,19.13
2023-05-05T18:45:25.444Z,19.05
2023-05-05T18:47:53.995Z,19.02
2023-05-05T18:50:22.487Z,18.80
2023-05-05T18:52:52.518Z,18.81
2023-05-05T18:55:22.911Z,18.72
2023-05-05T18:57:51.343Z,18.62
2023-05-05T19:00:28.949Z,18.56
2023-05-05T19:02:57.544Z,18.48
2023-05-05T19:05:25.828Z,18.30
2023-05-05T19:07:54.003Z,18.35
2023-05-05T19:10:22.170Z,18.32
2023-05-05T19:12:50.378Z,18.21
2023-05-05T19:15:18.964Z,18.15
2023-05-05T19:17:47.989Z,18.05
2023-05-05T19:20:16.344Z,18.01
2023-05-05T19:22:47.722Z,17.94
2023-05-05T19:25:17.079Z,17.88
2023-05-05T19:27:45.488Z,17.77
2023-05-05T19:30:13.991Z,17.68
2023-05-05T19:32:42.361Z,17.68
2023-05-05T19:35:12.274Z,17.65
2023-05-05T19:37:41.128Z,17.63
2023-05-05T19:40:09.684Z,17.55
2023-05-05T19:42:37.941Z,17.52
2023-05-05T19:45:09.645Z,17.48
2023-05-05T19:47:40.942Z,17.42
2023-05-05T19:50:09.816Z,17.30
2023-05-05T19:52:38.728Z,17.30
2023-05-05T19:55:07.700Z,17.25
2023-05-05T19:57:35.793Z,17.17
2023-05-05T20:00:04.181Z,17.17
2023-05-05T20:02:33.750Z,17.14
2023-05-05T20:05:03.302Z,17.10
2023-05-05T20:07:31.809Z,17.01
2023-05-05T20:10:01.531Z,16.90
2023-05-05T20:12:30.142Z,16.92
2023-05-05T20:14:59.698Z,16.84
2023-05-05T20:17:28.248Z,16.80
2023-05-05T20:19:58.072Z,16.73
2023-05-05T20:22:29.212Z,16.67
2023-05-05T20:24:58.540Z,16.60
2023-05-05T20:27:28.578Z,16.54
2023-05-05T20:29:57.090Z,16.48
2023-05-05T20:32:25.100Z,16.50
2023-05-05T20:34:53.470Z,16.48
2023-05-05T20:37:22.714Z,16.40
2023-05-05T20:39:51.327Z,16.37
2023-05-05T20:42:19.768Z,16.33
2023-05-05T20:44:48.076Z,16.31
2023-05-05T20:47:16.261Z,16.29
2023-05-05T20:49:44.258Z,16.24
2023-05-05T20:52:12.462Z,16.18
2023-05-05T20:54:40.660Z,16.09
2023-05-05T20:57:09.214Z,16.02
2023-05-05T20:59:38.347Z,15.99
2023-05-05T21:02:06.654Z,15.88
2023-05-05T21:04:35.057Z,15.88
2023-05-05T21:07:03.433Z,15.77
2023-05-05T21:09:32.063Z,15.78
2023-05-05T21:12:00.137Z,15.70
2023-05-05T21:14:29.919Z,15.69
2023-05-05T21:16:58.384Z,15.57
2023-05-05T21:19:26.955Z,15.57
2023-05-05T21:21:59.396Z,15.50
2023-05-05T21:24:28.422Z,15.45
2023-05-05T21:26:57.090Z,15.46
2023-05-05T21:29:25.323Z,15.42
2023-05-05T21:31:53.642Z,15.36
2023-05-05T21:34:22.134Z,15.34
2023-05-05T21:36:50.375Z,15.25
2023-05-05T21:39:19.682Z,15.22
2023-05-05T21:41:48.131Z,15.18
2023-05-05T21:44:16.611Z,15.11
2023-05-05T21:46:44.911Z,15.05
2023-05-05T21:49:16.956Z,14.94
2023-05-05T21:51:47.925Z,14.80
2023-05-05T21:54:17.713Z,14.72
2023-05-05T21:56:45.849Z,14.72
2023-05-05T21:59:15.845Z,14.69
2023-05-05T22:01:45.076Z,14.61
2023-05-05T22:04:14.439Z,14.47
2023-05-05T22:06:42.661Z,14.46
2023-05-05T22:09:14.057Z,14.42
2023-05-05T22:11:41.973Z,14.26
2023-05-05T22:14:10.793Z,14.25
2023-05-05T22:16:42.243Z,14.21
2023-05-05T22:19:10.858Z,14.16
2023-05-05T22:21:39.434Z,14.14
2023-05-05T22:24:07.993Z,14.06
2023-05-05T22:26:43.438Z,14.05
2023-05-05T22:29:11.689Z,13.96
2023-05-05T22:31:43.095Z,13.97
2023-05-05T22:34:11.802Z,14.00
2023-05-05T22:36:40.143Z,13.94
2023-05-05T22:39:11.389Z,13.92
2023-05-05T22:41:42.558Z,13.88
2023-05-05T22:44:13.548Z,13.84
2023-05-05T22:46:42.471Z,13.82
2023-05-05T22:49:10.733Z,13.70
2023-05-05T22:51:39.468Z,13.74
2023-05-05T22:54:07.653Z,13.72
2023-05-05T22:56:36.678Z,13.69
2023-05-05T22:59:05.938Z,13.56
2023-05-05T23:01:36.543Z,13.50
2023-05-05T23:04:08.495Z,13.45
2023-05-05T23:06:40.218Z,13.47
2023-05-05T23:09:10.797Z,13.40
2023-05-05T23:11:45.654Z,13.33
2023-05-05T23:14:14.395Z,13.32
2023-05-05T23:16:42.836Z,13.25
2023-05-05T23:19:13.381Z,13.28
2023-05-05T23:21:52.500Z,13.28
2023-05-05T23:24:22.534Z,13.19
2023-05-05T23:26:52.392Z,13.16
2023-05-05T23:29:20.986Z,13.19
2023-05-05T23:31:49.721Z,13.14
2023-05-05T23:34:18.063Z,13.14
2023-05-05T23:36:51.684Z,13.11
2023-05-05T23:39:20.256Z,13.12
2023-05-05T23:41:48.242Z,13.11
2023-05-05T23:44:16.145Z,13.12
2023-05-05T23:46:47.158Z,13.12
2023-05-05T23:49:15.378Z,13.03
2023-05-05T23:51:43.330Z,13.06
2023-05-05T23:54:11.368Z,13.04
2023-05-05T23:56:41.424Z,12.99
2023-05-05T23:59:09.980Z,12.97
